createdAt,value
2019-04-21T00:01:59.574Z,57.54
2019-04-21T00:04:48.332Z,57.64
2019-04-21T00:07:26.458Z,57.82
2019-04-21T00:10:09.710Z,57.97
2019-04-21T00:15:04.738Z,58.76
2019-04-21T00:17:28.710Z,59.42
2019-04-21T00:20:15.755Z,59.65
2019-04-21T00:22:52.378Z,58.85
2019-04-21T00:25:30.921Z,58.60
2019-04-21T00:28:09.727Z,58.60
2019-04-21T00:30:44.215Z,58.62
2019-04-21T00:33:09.166Z,58.16
2019-04-21T00:35:45.106Z,58.71
2019-04-21T00:38:35.515Z,58.70
2019-04-21T00:41:13.249Z,58.93
2019-04-21T00:43:41.349Z,59.05
2019-04-21T00:46:13.560Z,58.77
2019-04-21T00:48:57.437Z,59.00
2019-04-21T00:51:42.151Z,59.48
2019-04-21T00:54:16.970Z,59.72
2019-04-21T00:56:52.637Z,59.64
2019-04-21T00:59:28.199Z,60.27
2019-04-21T01:02:00.088Z,60.46
2019-04-21T01:04:39.506Z,59.69
2019-04-21T01:07:13.278Z,59.91
2019-04-21T01:09:43.954Z,59.76
2019-04-21T01:12:31.913Z,59.63
2019-04-21T01:15:04.724Z,60.10
2019-04-21T01:17:44.816Z,60.24
2019-04-21T01:20:09.652Z,60.58
2019-04-21T01:22:29.515Z,59.90
2019-04-21T01:25:11.898Z,60.07
2019-04-21T01:27:54.098Z,60.30
2019-04-21T01:30:34.739Z,60.46
2019-04-21T01:33:16.950Z,60.58
2019-04-21T01:35:48.433Z,60.43
2019-04-21T01:38:28.842Z,59.87
2019-04-21T01:41:08.363Z,59.99
2019-04-21T01:43:33.317Z,60.08
2019-04-21T01:46:10.934Z,60.07
2019-04-21T01:48:43.699Z,60.20
2019-04-21T01:51:22.484Z,60.32
2019-04-21T01:54:22.245Z,59.98
2019-04-21T01:57:02.752Z,60.22
2019-04-21T01:59:39.587Z,60.31
2019-04-21T02:02:19.306Z,60.43
2019-04-21T02:04:57.604Z,60.49
2019-04-21T02:07:26.887Z,60.50
2019-04-21T02:10:05.137Z,60.37
2019-04-21T02:12:48.923Z,60.51
2019-04-21T02:15:38.002Z,60.49
2019-04-21T02:17:54.106Z,60.79
2019-04-21T02:20:21.793Z,60.83
2019-04-21T02:23:22.399Z,60.80
2019-04-21T02:25:44.700Z,61.06
2019-04-21T02:28:22.437Z,60.71
2019-04-21T02:41:31.176Z,60.85
2019-04-21T02:47:19.488Z,60.89
2019-04-21T02:49:32.698Z,60.47
2019-04-21T02:57:08.581Z,61.03
2019-04-21T03:00:10.148Z,61.19
2019-04-21T03:06:10.495Z,61.65
2019-04-21T03:11:17.620Z,62.07
2019-04-21T03:14:12.490Z,62.45
2019-04-21T03:16:32.977Z,62.82
2019-04-21T03:19:17.579Z,63.07
2019-04-21T03:22:39.379Z,63.53
2019-04-21T03:25:21.433Z,63.74
2019-04-21T03:27:51.231Z,64.00
2019-04-21T03:30:42.610Z,64.19
2019-04-21T03:40:37.266Z,64.81
2019-04-21T03:43:12.657Z,65.08
2019-04-21T03:45:49.218Z,65.48
2019-04-21T03:48:27.038Z,65.64
2019-04-21T03:50:56.659Z,65.38
2019-04-21T03:53:44.477Z,65.77
2019-04-21T03:58:55.867Z,65.89
2019-04-21T04:01:57.767Z,66.12
2019-04-21T04:07:49.799Z,66.44
2019-04-21T04:10:22.402Z,66.76
2019-04-21T04:12:52.540Z,66.63
2019-04-21T04:15:45.374Z,66.83
2019-04-21T04:18:04.616Z,66.94
2019-04-21T04:25:51.585Z,67.59
2019-04-21T04:31:21.475Z,67.74
2019-04-21T04:36:30.164Z,67.66
2019-04-21T04:39:25.833Z,67.55
2019-04-21T04:47:22.744Z,62.93
2019-04-21T04:52:36.215Z,61.16
2019-04-21T04:55:26.161Z,57.59
2019-04-21T05:02:56.397Z,51.28
2019-04-21T05:06:11.912Z,49.51
2019-04-21T05:08:42.381Z,47.55
2019-04-21T05:11:20.877Z,46.00
2019-04-21T05:13:50.896Z,44.45
2019-04-21T05:16:36.251Z,44.23
2019-04-21T05:24:01.319Z,41.78
2019-04-21T05:26:34.506Z,40.93
2019-04-21T05:29:10.594Z,39.57
2019-04-21T05:32:13.361Z,39.24
2019-04-21T05:34:37.399Z,39.96
2019-04-21T05:37:37.152Z,41.14
2019-04-21T05:40:15.845Z,39.94
2019-04-21T05:42:55.539Z,39.64
2019-04-21T05:45:37.309Z,39.19
2019-04-21T05:48:33.626Z,39.07
2019-04-21T05:51:02.046Z,38.35
2019-04-21T05:53:55.662Z,38.18
2019-04-21T05:56:17.448Z,36.59
2019-04-21T05:58:48.030Z,36.69
2019-04-21T06:01:33.443Z,37.34
2019-04-21T06:04:05.413Z,35.92
2019-04-21T06:06:49.791Z,35.31
2019-04-21T06:09:18.987Z,32.27
2019-04-21T06:11:55.527Z,32.32
2019-04-21T06:14:30.524Z,32.68
2019-04-21T06:17:17.522Z,30.03
2019-04-21T06:19:43.258Z,29.88
2019-04-21T06:22:13.873Z,30.68
2019-04-21T06:30:24.006Z,28.38
2019-04-21T06:32:47.152Z,28.74
2019-04-21T06:35:56.510Z,29.80
2019-04-21T06:38:19.269Z,28.76
2019-04-21T06:40:50.084Z,30.13
2019-04-21T06:43:37.718Z,29.47
2019-04-21T06:46:02.228Z,30.20
2019-04-21T06:48:44.452Z,30.34
2019-04-21T06:51:15.115Z,30.53
2019-04-21T06:53:59.373Z,29.53
2019-04-21T06:56:38.010Z,29.83
2019-04-21T06:59:06.725Z,30.41
2019-04-21T07:01:51.463Z,29.75
2019-04-21T07:04:25.280Z,30.88
2019-04-21T07:06:54.216Z,30.32
2019-04-21T07:09:31.867Z,28.20
2019-04-21T07:12:06.196Z,27.19
2019-04-21T07:14:50.046Z,27.24
2019-04-21T07:17:26.938Z,26.54
2019-04-21T07:22:36.859Z,27.64
2019-04-21T07:25:18.230Z,27.48
2019-04-21T07:27:49.052Z,27.09
2019-04-21T07:30:26.673Z,29.98
2019-04-21T07:33:09.249Z,29.43
2019-04-21T07:35:31.816Z,29.92
2019-04-21T07:38:17.992Z,29.40
2019-04-21T07:40:39.982Z,28.53
2019-04-21T07:43:13.581Z,29.49
2019-04-21T07:45:49.853Z,29.65
2019-04-21T07:48:36.142Z,29.24
2019-04-21T07:51:33.973Z,29.11
2019-04-21T07:54:10.401Z,28.35
2019-04-21T07:56:28.757Z,28.25
2019-04-21T07:59:21.247Z,29.83
2019-04-21T08:01:55.151Z,28.71
2019-04-21T08:04:49.566Z,27.89
2019-04-21T08:07:09.942Z,27.42
2019-04-21T08:09:42.657Z,29.29
2019-04-21T08:12:08.108Z,27.52
2019-04-21T08:14:50.711Z,27.45
2019-04-21T08:17:30.206Z,29.07
2019-04-21T08:20:00.571Z,28.64
2019-04-21T08:22:46.334Z,29.54
2019-04-21T08:28:26.430Z,27.60
2019-04-21T08:30:56.801Z,27.43
2019-04-21T08:33:17.538Z,26.99
2019-04-21T08:38:31.515Z,27.23
2019-04-21T08:41:01.563Z,27.56
2019-04-21T08:46:16.949Z,29.41
2019-04-21T08:48:52.574Z,28.34
2019-04-21T08:51:44.756Z,28.78
2019-04-21T08:54:05.514Z,29.63
2019-04-21T08:56:54.474Z,30.14
2019-04-21T08:59:53.371Z,29.02
2019-04-21T09:02:34.000Z,29.84
2019-04-21T09:05:09.026Z,28.66
2019-04-21T09:10:14.321Z,27.75
2019-04-21T09:12:46.614Z,28.54
2019-04-21T09:15:29.357Z,28.32
2019-04-21T09:18:00.663Z,29.25
2019-04-21T09:23:18.089Z,29.31
2019-04-21T09:25:52.258Z,28.66
2019-04-21T09:28:22.670Z,28.50
2019-04-21T09:30:52.173Z,28.36
2019-04-21T09:33:28.050Z,27.73
2019-04-21T09:36:02.665Z,27.40
2019-04-21T09:38:39.838Z,26.31
2019-04-21T09:41:15.477Z,26.97
2019-04-21T09:43:52.142Z,26.55
2019-04-21T09:46:25.429Z,26.45
2019-04-21T09:49:05.753Z,26.76
2019-04-21T09:51:37.220Z,27.12
2019-04-21T09:54:17.458Z,27.37
2019-04-21T09:56:54.013Z,27.41
2019-04-21T09:59:28.450Z,27.94
2019-04-21T10:02:08.458Z,26.36
2019-04-21T10:04:34.102Z,26.75
2019-04-21T10:07:23.617Z,26.38
2019-04-21T10:09:49.908Z,26.54
2019-04-21T10:12:23.792Z,26.21
2019-04-21T10:14:57.537Z,24.57
2019-04-21T10:17:56.230Z,24.76
2019-04-21T10:20:30.891Z,24.90
2019-04-21T10:23:07.213Z,24.90
2019-04-21T10:25:43.209Z,24.91
2019-04-21T10:28:19.025Z,25.45
2019-04-21T10:30:54.095Z,25.09
2019-04-21T10:33:30.767Z,26.03
2019-04-21T10:36:06.861Z,25.20
2019-04-21T10:38:47.745Z,24.91
2019-04-21T10:41:17.720Z,24.71
2019-04-21T10:43:51.527Z,25.13
2019-04-21T10:46:26.602Z,26.03
2019-04-21T10:49:01.096Z,25.93
2019-04-21T10:51:35.276Z,25.94
2019-04-21T10:54:09.052Z,27.21
2019-04-21T10:56:44.465Z,27.26
2019-04-21T10:59:20.448Z,24.58
2019-04-21T11:01:56.839Z,26.06
2019-04-21T11:04:36.443Z,25.81
2019-04-21T11:07:31.887Z,25.15
2019-04-21T11:10:04.461Z,25.49
2019-04-21T11:12:39.741Z,25.16
2019-04-21T11:15:14.876Z,25.38
2019-04-21T11:17:49.214Z,25.46
2019-04-21T11:20:24.780Z,25.19
2019-04-21T11:23:01.693Z,25.43
2019-04-21T11:25:37.849Z,25.00
2019-04-21T11:28:14.280Z,25.57
2019-04-21T11:30:50.972Z,24.35
2019-04-21T11:33:24.981Z,24.36
2019-04-21T11:36:01.357Z,24.79
2019-04-21T11:38:59.193Z,24.37
2019-04-21T11:41:19.132Z,24.16
2019-04-21T11:43:54.927Z,24.42
2019-04-21T11:46:29.093Z,24.34
2019-04-21T11:49:06.331Z,24.18
2019-04-21T11:51:40.786Z,24.99
2019-04-21T11:54:15.064Z,24.64
2019-04-21T11:56:49.079Z,24.16
2019-04-21T11:59:23.734Z,23.98
2019-04-21T12:01:59.423Z,23.49
2019-04-21T12:04:33.732Z,23.95
2019-04-21T12:07:09.175Z,24.01
2019-04-21T12:09:45.772Z,23.84
2019-04-21T12:12:19.377Z,24.31
2019-04-21T12:14:55.610Z,23.30
2019-04-21T12:17:30.036Z,23.37
2019-04-21T12:20:03.657Z,23.01
2019-04-21T12:22:37.484Z,21.23
2019-04-21T12:25:13.512Z,22.43
2019-04-21T12:27:47.864Z,21.94
2019-04-21T12:30:24.078Z,22.33
2019-04-21T12:33:04.348Z,21.90
2019-04-21T12:35:39.488Z,23.11
2019-04-21T12:38:17.461Z,23.71
2019-04-21T12:40:51.001Z,23.15
2019-04-21T12:43:26.578Z,23.14
2019-04-21T12:46:00.385Z,21.18
2019-04-21T12:48:34.011Z,22.20
2019-04-21T12:51:07.925Z,20.56
2019-04-21T12:53:41.738Z,19.80
2019-04-21T12:56:17.738Z,20.97
2019-04-21T12:58:51.576Z,21.14
2019-04-21T13:01:25.259Z,21.62
2019-04-21T13:04:00.225Z,21.62
2019-04-21T13:06:33.942Z,21.62
2019-04-21T13:09:12.713Z,22.10
2019-04-21T13:11:44.647Z,21.92
2019-04-21T13:14:18.307Z,22.36
2019-04-21T13:16:53.247Z,21.59
2019-04-21T13:19:29.278Z,22.77
2019-04-21T13:22:05.743Z,22.68
2019-04-21T13:24:42.117Z,22.40
2019-04-21T13:27:20.536Z,22.83
2019-04-21T13:29:56.532Z,22.69
2019-04-21T13:32:31.176Z,22.53
2019-04-21T13:35:05.402Z,23.04
2019-04-21T13:37:41.514Z,22.67
2019-04-21T13:40:57.007Z,22.73
2019-04-21T13:43:20.951Z,22.73
2019-04-21T13:45:57.732Z,23.26
2019-04-21T13:48:32.659Z,23.64
2019-04-21T13:51:07.140Z,22.77
2019-04-21T13:53:41.867Z,22.91
2019-04-21T13:56:16.402Z,23.06
2019-04-21T13:58:52.629Z,22.01
2019-04-21T14:01:27.649Z,22.77
2019-04-21T14:04:05.186Z,22.05
2019-04-21T14:06:42.155Z,23.41
2019-04-21T14:09:17.868Z,22.89
2019-04-21T14:11:54.090Z,22.28
2019-04-21T14:14:28.375Z,22.55
2019-04-21T14:17:05.116Z,22.74
2019-04-21T14:19:37.767Z,22.37
2019-04-21T14:22:13.922Z,22.56
2019-04-21T14:24:48.050Z,23.72
2019-04-21T14:27:22.199Z,22.89
2019-04-21T14:29:55.834Z,23.90
2019-04-21T14:32:29.948Z,23.52
2019-04-21T14:35:04.857Z,23.19
2019-04-21T14:37:38.657Z,23.37
2019-04-21T14:40:20.125Z,23.08
2019-04-21T14:42:51.989Z,23.53
2019-04-21T14:45:48.634Z,23.79
2019-04-21T14:48:41.577Z,23.35
2019-04-21T14:51:47.468Z,22.82
2019-04-21T14:54:42.630Z,22.69
2019-04-21T14:57:21.241Z,23.51
2019-04-21T14:59:55.197Z,24.40
2019-04-21T15:02:29.866Z,23.69
2019-04-21T15:05:04.089Z,23.67
2019-04-21T15:07:39.300Z,24.44
2019-04-21T15:10:19.063Z,23.31
2019-04-21T15:12:50.118Z,22.70
2019-04-21T15:15:23.787Z,23.38
2019-04-21T15:17:57.939Z,23.63
2019-04-21T15:20:31.568Z,23.67
2019-04-21T15:23:06.295Z,23.44
2019-04-21T15:25:40.068Z,23.28
2019-04-21T15:28:15.902Z,23.83
2019-04-21T15:30:50.443Z,23.16
2019-04-21T15:33:26.465Z,23.21
2019-04-21T15:36:00.822Z,22.10
2019-04-21T15:38:35.801Z,22.69
2019-04-21T15:41:10.875Z,22.49
2019-04-21T15:43:46.737Z,22.48
2019-04-21T15:46:20.589Z,23.40
2019-04-21T15:48:55.150Z,22.71
2019-04-21T15:51:29.650Z,23.36
2019-04-21T15:54:04.901Z,23.09
2019-04-21T15:57:02.772Z,23.18
2019-04-21T16:00:04.667Z,23.09
2019-04-21T16:02:40.545Z,23.35
2019-04-21T16:05:16.910Z,23.53
2019-04-21T16:07:52.013Z,22.77
2019-04-21T16:10:34.625Z,22.91
2019-04-21T16:13:01.706Z,22.72
2019-04-21T16:15:36.558Z,22.85
2019-04-21T16:18:10.432Z,22.27
2019-04-21T16:20:44.032Z,22.56
2019-04-21T16:23:18.281Z,22.90
2019-04-21T16:25:52.755Z,23.16
2019-04-21T16:28:27.020Z,23.22
2019-04-21T16:31:04.677Z,23.12
2019-04-21T16:33:40.958Z,22.94
2019-04-21T16:36:18.096Z,22.89
2019-04-21T16:38:53.463Z,22.66
2019-04-21T16:41:28.544Z,22.66
2019-04-21T16:44:02.995Z,22.67
2019-04-21T16:46:37.746Z,22.80
2019-04-21T16:49:11.810Z,22.75
2019-04-21T16:51:47.543Z,22.59
2019-04-21T16:54:28.244Z,22.92
2019-04-21T16:57:13.798Z,23.15
2019-04-21T16:59:52.664Z,23.08
2019-04-21T17:02:28.392Z,22.77
2019-04-21T17:05:04.652Z,23.29
2019-04-21T17:07:38.882Z,23.00
2019-04-21T17:10:12.888Z,23.57
2019-04-21T17:12:48.009Z,23.93
2019-04-21T17:15:40.758Z,23.78
2019-04-21T17:18:20.827Z,24.22
2019-04-21T17:20:45.048Z,24.62
2019-04-21T17:23:11.488Z,24.91
2019-04-21T17:25:45.386Z,25.32
2019-04-21T17:28:19.612Z,25.23
2019-04-21T17:30:54.621Z,25.56
2019-04-21T17:33:30.202Z,25.50
2019-04-21T17:36:04.990Z,25.69
2019-04-21T17:38:39.880Z,25.32
2019-04-21T17:41:25.003Z,25.21
2019-04-21T17:43:49.938Z,25.32
2019-04-21T17:46:33.303Z,25.46
2019-04-21T17:49:01.017Z,25.45
2019-04-21T17:52:01.783Z,25.22
2019-04-21T17:54:43.608Z,25.72
2019-04-21T17:57:33.459Z,25.73
2019-04-21T18:00:14.076Z,25.94
2019-04-21T18:02:51.763Z,26.27
2019-04-21T18:05:28.991Z,26.00
2019-04-21T18:07:54.378Z,26.11
2019-04-21T18:10:34.795Z,26.42
2019-04-21T18:13:03.729Z,26.25
2019-04-21T18:15:50.695Z,26.38
2019-04-21T18:18:06.458Z,26.46
2019-04-21T18:20:46.250Z,26.13
2019-04-21T18:23:39.461Z,26.72
2019-04-21T18:26:08.170Z,26.38
2019-04-21T18:28:38.784Z,26.30
2019-04-21T18:31:16.532Z,26.76
2019-04-21T18:34:13.810Z,26.78
2019-04-21T18:36:51.710Z,26.35
2019-04-21T18:39:48.612Z,26.92
2019-04-21T18:42:32.783Z,27.21
2019-04-21T18:48:19.068Z,27.55
2019-04-21T18:51:18.953Z,28.24
2019-04-21T18:54:17.373Z,27.99
2019-04-21T18:56:33.748Z,29.21
2019-04-21T18:59:08.871Z,29.43
2019-04-21T19:01:51.447Z,29.36
2019-04-21T19:04:22.528Z,30.19
2019-04-21T19:07:06.701Z,30.45
2019-04-21T19:10:14.868Z,31.07
2019-04-21T19:12:35.150Z,31.22
2019-04-21T19:14:59.329Z,31.43
2019-04-21T19:22:47.194Z,30.77
2019-04-21T19:25:25.279Z,30.69
2019-04-21T19:28:04.625Z,30.68
2019-04-21T19:30:49.341Z,31.11
2019-04-21T19:33:22.062Z,31.14
2019-04-21T19:35:39.342Z,31.81
2019-04-21T19:38:16.195Z,32.29
2019-04-21T19:41:05.332Z,32.87
2019-04-21T19:43:49.275Z,33.10
2019-04-21T19:46:19.335Z,33.44
2019-04-21T19:49:05.495Z,33.61
2019-04-21T19:51:26.416Z,34.15
2019-04-21T19:54:00.794Z,33.63
2019-04-21T19:56:25.854Z,34.32
2019-04-21T19:59:01.171Z,35.65
2019-04-21T20:01:35.194Z,35.42
2019-04-21T20:04:10.424Z,36.09
2019-04-21T20:07:00.666Z,35.82
2019-04-21T20:09:39.606Z,35.02
2019-04-21T20:12:09.339Z,33.88
2019-04-21T20:14:55.750Z,33.83
2019-04-21T20:17:24.411Z,34.40
2019-04-21T20:19:45.024Z,34.92
2019-04-21T20:22:18.943Z,34.46
2019-04-21T20:25:00.181Z,35.06
2019-04-21T20:27:39.036Z,36.18
2019-04-21T20:30:29.770Z,35.76
2019-04-21T20:33:05.821Z,36.12
2019-04-21T20:35:45.096Z,37.11
2019-04-21T20:38:12.529Z,37.91
2019-04-21T20:40:45.347Z,37.39
2019-04-21T20:43:30.704Z,37.28
2019-04-21T20:46:06.143Z,36.92
2019-04-21T20:48:40.109Z,37.25
2019-04-21T20:51:18.570Z,36.64
2019-04-21T20:53:47.803Z,36.82
2019-04-21T20:56:19.324Z,36.61
2019-04-21T20:58:59.791Z,37.06
2019-04-21T21:01:39.402Z,37.18
2019-04-21T21:04:13.796Z,37.22
2019-04-21T21:06:54.114Z,37.04
2019-04-21T21:09:23.089Z,37.05
2019-04-21T21:12:18.254Z,37.30
2019-04-21T21:14:40.760Z,37.32
2019-04-21T21:17:36.112Z,37.37
2019-04-21T21:19:55.797Z,37.33
2019-04-21T21:22:22.789Z,37.52
2019-04-21T21:25:02.990Z,37.82
2019-04-21T21:27:38.351Z,38.10
2019-04-21T21:30:08.320Z,38.09
2019-04-21T21:32:52.428Z,38.27
2019-04-21T21:35:21.878Z,38.29
2019-04-21T21:38:06.728Z,38.53
2019-04-21T21:40:38.188Z,38.80
2019-04-21T21:43:01.555Z,38.84
2019-04-21T21:45:41.507Z,39.14
2019-04-21T21:48:26.434Z,39.61
2019-04-21T21:50:56.639Z,39.51
2019-04-21T21:53:26.998Z,39.81
2019-04-21T21:56:00.727Z,39.89
2019-04-21T21:58:41.917Z,40.03
2019-04-21T22:01:16.703Z,40.09
2019-04-21T22:03:59.199Z,40.26
2019-04-21T22:06:38.691Z,40.43
2019-04-21T22:09:01.702Z,40.38
2019-04-21T22:11:35.887Z,40.57
2019-04-21T22:14:17.146Z,40.65
2019-04-21T22:17:07.682Z,40.83
2019-04-21T22:19:41.629Z,41.23
2019-04-21T22:22:21.051Z,41.55
2019-04-21T22:24:49.316Z,41.69
2019-04-21T22:27:14.902Z,41.77
2019-04-21T22:29:53.513Z,41.82
2019-04-21T22:32:28.633Z,42.04
2019-04-21T22:35:04.810Z,42.25
2019-04-21T22:37:48.772Z,42.68
2019-04-21T22:40:23.997Z,42.54
2019-04-21T22:42:59.458Z,42.96
2019-04-21T22:45:25.141Z,42.92
2019-04-21T22:48:07.501Z,43.15
2019-04-21T22:50:38.375Z,43.46
2019-04-21T22:53:13.815Z,43.84
2019-04-21T22:55:49.602Z,44.55
2019-04-21T22:58:29.339Z,44.51
2019-04-21T23:01:01.856Z,44.84
2019-04-21T23:03:35.767Z,44.67
2019-04-21T23:06:17.917Z,45.10
2019-04-21T23:08:48.114Z,44.69
2019-04-21T23:11:23.540Z,44.91
2019-04-21T23:14:04.008Z,44.69
2019-04-21T23:16:38.443Z,44.42
2019-04-21T23:19:31.164Z,44.79
2019-04-21T23:22:04.151Z,44.77
2019-04-21T23:24:45.545Z,44.70
2019-04-21T23:27:15.573Z,44.31
2019-04-21T23:29:58.867Z,44.56
2019-04-21T23:32:23.899Z,44.87
2019-04-21T23:34:49.161Z,45.17
2019-04-21T23:37:27.178Z,45.89
2019-04-21T23:40:07.573Z,47.02
2019-04-21T23:42:41.559Z,47.03
2019-04-21T23:45:17.691Z,47.76
2019-04-21T23:48:05.004Z,47.83
2019-04-21T23:50:37.838Z,48.00
2019-04-21T23:53:01.800Z,47.93
2019-04-21T23:55:37.088Z,47.81
2019-04-21T23:58:16.385Z,48.34
